createdAt,value
2024-02-21T00:01:46.072Z,10.63
2024-02-21T00:04:12.780Z,11.18
2024-02-21T00:06:39.506Z,11.45
2024-02-21T00:09:06.149Z,11.85
2024-02-21T00:11:32.835Z,11.85
2024-02-21T00:13:59.546Z,12.25
2024-02-21T00:16:26.297Z,11.80
2024-02-21T00:18:53.065Z,11.82
2024-02-21T00:21:19.858Z,12.25
2024-02-21T00:23:51.655Z,11.95
2024-02-21T00:26:18.330Z,11.27
2024-02-21T00:28:45.445Z,11.63
2024-02-21T00:31:12.194Z,10.75
2024-02-21T00:33:38.976Z,11.43
2024-02-21T00:36:05.797Z,10.93
2024-02-21T00:38:32.412Z,10.88
2024-02-21T00:40:59.181Z,10.73
2024-02-21T00:43:26.233Z,10.05
2024-02-21T00:45:52.992Z,10.05
2024-02-21T00:48:19.711Z,9.85
2024-02-21T00:50:46.481Z,8.82
2024-02-21T00:53:13.313Z,9.93
2024-02-21T00:55:41.150Z,9.10
2024-02-21T00:58:07.830Z,8.23
2024-02-21T01:00:34.446Z,8.43
2024-02-21T01:03:01.084Z,8.77
2024-02-21T01:05:30.086Z,8.68
2024-02-21T01:07:56.797Z,8.32
2024-02-21T01:10:23.994Z,7.50
2024-02-21T01:12:50.745Z,7.88
2024-02-21T01:15:17.439Z,7.82
2024-02-21T01:17:44.350Z,8.45
2024-02-21T01:20:11.579Z,7.25
2024-02-21T01:22:38.537Z,7.47
2024-02-21T01:25:05.518Z,7.85
2024-02-21T01:27:32.262Z,7.45
2024-02-21T01:29:59.006Z,7.65
2024-02-21T01:32:25.879Z,8.27
2024-02-21T01:34:52.900Z,7.55
2024-02-21T01:37:19.707Z,7.97
2024-02-21T01:39:46.416Z,8.07
2024-02-21T01:42:13.048Z,8.05
2024-02-21T01:44:39.752Z,8.93
2024-02-21T01:47:06.478Z,8.98
2024-02-21T01:49:33.227Z,8.07
2024-02-21T01:51:59.943Z,7.82
2024-02-21T01:54:29.691Z,8.32
2024-02-21T01:56:56.503Z,7.72
2024-02-21T01:59:23.464Z,8.65
2024-02-21T02:01:51.792Z,8.80
2024-02-21T02:04:18.536Z,8.38
2024-02-21T02:06:45.191Z,8.05
2024-02-21T02:09:12.519Z,7.88
2024-02-21T02:11:39.243Z,7.70
2024-02-21T02:14:06.119Z,7.85
2024-02-21T02:16:32.827Z,8.00
2024-02-21T02:18:59.626Z,7.15
2024-02-21T02:21:31.483Z,7.90
2024-02-21T02:23:58.426Z,8.27
2024-02-21T02:26:25.055Z,7.80
2024-02-21T02:28:51.800Z,7.75
2024-02-21T02:31:18.765Z,7.68
2024-02-21T02:33:45.820Z,7.35
2024-02-21T02:36:13.326Z,7.22
2024-02-21T02:38:39.983Z,8.13
2024-02-21T02:41:06.750Z,7.75
2024-02-21T02:43:33.508Z,7.70
2024-02-21T02:46:00.162Z,8.10
2024-02-21T02:48:26.930Z,8.93
2024-02-21T02:50:53.666Z,7.68
2024-02-21T02:53:20.322Z,7.55
2024-02-21T02:55:47.001Z,8.07
2024-02-21T02:58:13.722Z,9.02
2024-02-21T03:00:40.698Z,9.27
2024-02-21T03:03:09.369Z,10.05
2024-02-21T03:05:36.142Z,9.57
2024-02-21T03:08:03.001Z,9.75
2024-02-21T03:10:30.099Z,9.73
2024-02-21T03:12:56.888Z,9.43
2024-02-21T03:15:23.551Z,9.02
2024-02-21T03:17:50.196Z,9.30
2024-02-21T03:20:17.077Z,8.40
2024-02-21T03:22:43.838Z,8.70
2024-02-21T03:25:11.891Z,9.52
2024-02-21T03:27:38.812Z,9.30
2024-02-21T03:30:06.053Z,10.10
2024-02-21T03:32:32.802Z,9.95
2024-02-21T03:34:59.738Z,10.50
2024-02-21T03:37:26.554Z,9.48
2024-02-21T03:39:53.322Z,9.27
2024-02-21T03:42:19.935Z,10.02
2024-02-21T03:44:46.605Z,9.10
2024-02-21T03:47:13.477Z,8.68
2024-02-21T03:49:40.780Z,7.57
2024-02-21T03:52:07.648Z,7.30
2024-02-21T03:54:34.330Z,6.45
2024-02-21T03:57:01.062Z,6.70
2024-02-21T03:59:27.683Z,6.13
2024-02-21T04:01:54.848Z,6.20
2024-02-21T04:04:21.983Z,6.45
2024-02-21T04:06:52.074Z,6.20
2024-02-21T04:09:18.974Z,6.72
2024-02-21T04:11:46.099Z,6.00
2024-02-21T04:14:13.282Z,4.88
2024-02-21T04:16:40.803Z,5.03
2024-02-21T04:19:08.013Z,4.38
2024-02-21T04:21:34.778Z,5.00
2024-02-21T04:24:02.957Z,5.80
2024-02-21T04:26:29.667Z,4.90
2024-02-21T04:28:56.418Z,4.10
2024-02-21T04:31:23.247Z,4.55
2024-02-21T04:33:50.001Z,4.53
2024-02-21T04:36:16.903Z,4.53
2024-02-21T04:38:43.605Z,4.10
2024-02-21T04:41:10.552Z,4.35
2024-02-21T04:43:37.307Z,4.40
2024-02-21T04:46:04.063Z,4.13
2024-02-21T04:48:30.728Z,3.72
2024-02-21T04:50:57.568Z,4.28
2024-02-21T04:53:24.380Z,4.53
2024-02-21T04:55:51.137Z,4.35
2024-02-21T04:58:17.847Z,4.40
2024-02-21T05:00:44.549Z,4.90
2024-02-21T05:03:12.178Z,4.93
2024-02-21T05:05:38.970Z,4.68
2024-02-21T05:08:06.129Z,4.15
2024-02-21T05:10:32.907Z,4.70
2024-02-21T05:12:59.907Z,4.10
2024-02-21T05:15:26.668Z,4.03
2024-02-21T05:17:53.715Z,4.07
2024-02-21T05:20:20.655Z,4.85
2024-02-21T05:22:47.462Z,3.53
2024-02-21T05:25:14.288Z,4.13
2024-02-21T05:27:41.009Z,4.47
2024-02-21T05:30:08.085Z,4.43
2024-02-21T05:32:34.780Z,4.22
2024-02-21T05:35:01.853Z,5.20
2024-02-21T05:37:28.935Z,4.70
2024-02-21T05:39:55.626Z,5.10
2024-02-21T05:42:22.260Z,4.78
2024-02-21T05:44:48.866Z,5.00
2024-02-21T05:47:16.504Z,4.82
2024-02-21T05:49:43.486Z,5.05
2024-02-21T05:52:10.282Z,4.95
2024-02-21T05:54:39.769Z,4.85
2024-02-21T05:57:07.061Z,5.17
2024-02-21T05:59:33.810Z,5.18
2024-02-21T06:02:00.812Z,5.32
2024-02-21T06:04:28.033Z,5.70
2024-02-21T06:06:55.034Z,5.03
2024-02-21T06:09:21.770Z,4.85
2024-02-21T06:11:50.148Z,5.05
2024-02-21T06:14:17.006Z,5.22
2024-02-21T06:16:45.257Z,5.25
2024-02-21T06:19:12.016Z,5.47
2024-02-21T06:21:38.834Z,5.40
2024-02-21T06:24:05.872Z,5.57
2024-02-21T06:26:32.500Z,4.78
2024-02-21T06:29:01.161Z,5.43
2024-02-21T06:31:28.968Z,4.95
2024-02-21T06:33:56.038Z,4.60
2024-02-21T06:36:22.771Z,5.20
2024-02-21T06:38:49.911Z,4.85
2024-02-21T06:41:17.823Z,5.40
2024-02-21T06:43:44.614Z,4.45
2024-02-21T06:46:11.335Z,5.70
2024-02-21T06:48:38.218Z,5.07
2024-02-21T06:51:05.458Z,5.43
2024-02-21T06:53:32.102Z,4.97
2024-02-21T06:55:59.200Z,5.15
2024-02-21T06:58:26.026Z,5.05
2024-02-21T07:00:52.762Z,5.05
2024-02-21T07:03:19.442Z,5.47
2024-02-21T07:05:46.249Z,4.45
2024-02-21T07:08:13.136Z,5.07
2024-02-21T07:10:39.916Z,5.13
2024-02-21T07:13:06.743Z,4.95
2024-02-21T07:15:34.130Z,4.97
2024-02-21T07:18:01.102Z,4.82
2024-02-21T07:20:27.961Z,5.38
2024-02-21T07:22:54.698Z,5.03
2024-02-21T07:25:21.541Z,5.78
2024-02-21T07:27:48.221Z,5.43
2024-02-21T07:30:17.488Z,5.00
2024-02-21T07:32:44.863Z,5.10
2024-02-21T07:35:12.983Z,5.82
2024-02-21T07:37:39.871Z,5.47
2024-02-21T07:40:16.950Z,5.13
2024-02-21T07:42:46.801Z,4.95
2024-02-21T07:45:15.350Z,5.30
2024-02-21T07:47:42.054Z,4.97
2024-02-21T07:50:09.254Z,5.15
2024-02-21T07:52:35.977Z,5.57
2024-02-21T07:55:02.716Z,4.85
2024-02-21T07:57:29.353Z,5.50
2024-02-21T07:59:55.963Z,4.72
2024-02-21T08:02:22.703Z,5.00
2024-02-21T08:04:49.390Z,4.70
2024-02-21T08:07:16.336Z,5.00
2024-02-21T08:09:43.368Z,4.65
2024-02-21T08:12:10.047Z,4.70
2024-02-21T08:14:36.698Z,4.10
2024-02-21T08:17:05.052Z,3.92
2024-02-21T08:19:32.203Z,4.38
2024-02-21T08:21:58.975Z,4.28
2024-02-21T08:24:25.691Z,4.57
2024-02-21T08:26:52.458Z,4.10
2024-02-21T08:29:19.109Z,4.28
2024-02-21T08:31:45.855Z,4.35
2024-02-21T08:34:14.355Z,4.63
2024-02-21T08:36:41.424Z,4.80
2024-02-21T08:39:10.520Z,4.35
2024-02-21T08:41:48.061Z,4.05
2024-02-21T08:44:27.653Z,5.22
2024-02-21T08:46:54.773Z,4.90
2024-02-21T08:49:21.815Z,4.60
2024-02-21T08:51:48.763Z,4.88
2024-02-21T08:54:15.465Z,5.35
2024-02-21T08:56:42.453Z,5.28
2024-02-21T08:59:09.352Z,4.97
2024-02-21T09:01:36.740Z,4.97
2024-02-21T09:04:04.048Z,4.82
2024-02-21T09:06:31.206Z,5.47
2024-02-21T09:08:59.163Z,4.63
2024-02-21T09:11:26.132Z,5.15
2024-02-21T09:13:53.204Z,4.80
2024-02-21T09:16:19.985Z,5.07
2024-02-21T09:18:47.717Z,4.65
2024-02-21T09:21:14.503Z,5.60
2024-02-21T09:23:41.181Z,5.15
2024-02-21T09:26:08.349Z,4.95
2024-02-21T09:28:35.680Z,5.10
2024-02-21T09:31:03.079Z,5.38
2024-02-21T09:33:32.556Z,5.07
2024-02-21T09:35:59.959Z,5.78
2024-02-21T09:38:26.739Z,6.00
2024-02-21T09:41:16.913Z,4.97
2024-02-21T09:43:44.471Z,5.45
2024-02-21T09:46:17.435Z,5.63
2024-02-21T09:48:50.005Z,5.13
2024-02-21T09:51:18.004Z,5.70
2024-02-21T09:53:52.076Z,5.65
2024-02-21T09:56:25.346Z,5.35
2024-02-21T09:58:52.116Z,5.45
2024-02-21T10:01:29.219Z,5.88
2024-02-21T10:04:00.991Z,5.43
2024-02-21T10:06:27.922Z,5.05
2024-02-21T10:08:55.274Z,5.00
2024-02-21T10:11:26.018Z,5.95
2024-02-21T10:14:03.478Z,5.55
2024-02-21T10:16:30.192Z,5.82
2024-02-21T10:18:56.967Z,4.88
2024-02-21T10:21:23.713Z,5.30
2024-02-21T10:23:51.468Z,4.95
2024-02-21T10:26:20.372Z,5.10
2024-02-21T10:28:48.516Z,4.82
2024-02-21T10:31:29.024Z,4.53
2024-02-21T10:34:00.449Z,5.50
2024-02-21T10:36:27.332Z,4.28
2024-02-21T10:38:55.931Z,4.70
2024-02-21T10:41:23.406Z,4.93
2024-02-21T10:43:55.575Z,4.35
2024-02-21T10:46:26.069Z,4.38
2024-02-21T10:49:04.141Z,4.50
2024-02-21T10:51:36.300Z,4.15
2024-02-21T10:54:24.573Z,3.92
2024-02-21T10:56:52.558Z,4.05
2024-02-21T10:59:19.385Z,3.38
2024-02-21T11:01:46.276Z,3.88
2024-02-21T11:04:13.637Z,4.22
2024-02-21T11:06:41.828Z,3.55
2024-02-21T11:09:12.401Z,3.83
2024-02-21T11:11:41.689Z,3.25
2024-02-21T11:14:18.523Z,3.78
2024-02-21T11:16:45.238Z,3.60
2024-02-21T11:19:23.777Z,3.72
2024-02-21T11:21:51.591Z,4.18
2024-02-21T11:24:29.817Z,3.50
2024-02-21T11:27:15.600Z,3.10
2024-02-21T11:29:49.510Z,3.80
2024-02-21T11:32:16.794Z,3.17
2024-02-21T11:35:05.283Z,3.20
2024-02-21T11:37:35.363Z,3.33
2024-02-21T11:40:04.218Z,3.50
2024-02-21T11:42:32.392Z,3.50
2024-02-21T11:45:00.530Z,3.40
2024-02-21T11:47:29.782Z,3.10
2024-02-21T11:49:56.666Z,3.15
2024-02-21T11:52:26.730Z,2.83
2024-02-21T11:57:21.607Z,3.35
2024-02-21T11:59:49.550Z,3.00
2024-02-21T12:02:16.442Z,3.05
2024-02-21T12:04:43.681Z,2.85
2024-02-21T12:07:10.481Z,3.05
2024-02-21T12:09:37.190Z,3.03
2024-02-21T12:12:06.130Z,2.85
2024-02-21T12:14:34.641Z,2.25
2024-02-21T12:17:02.577Z,3.30
2024-02-21T12:19:35.895Z,3.20
2024-02-21T12:22:07.166Z,2.50
2024-02-21T12:24:34.500Z,2.50
2024-02-21T12:27:04.509Z,2.75
2024-02-21T12:29:31.375Z,2.70
2024-02-21T12:31:58.336Z,2.80
2024-02-21T12:34:35.053Z,2.90
2024-02-21T12:37:13.039Z,2.70
2024-02-21T12:39:39.925Z,2.80
2024-02-21T12:42:06.601Z,2.95
2024-02-21T12:46:59.941Z,2.65
2024-02-21T12:49:28.730Z,2.83
2024-02-21T12:51:56.364Z,3.00
2024-02-21T12:54:23.259Z,2.80
2024-02-21T12:56:51.005Z,2.88
2024-02-21T12:59:18.121Z,2.40
2024-02-21T13:01:44.999Z,2.70
2024-02-21T13:04:13.066Z,2.92
2024-02-21T13:06:39.939Z,2.40
2024-02-21T13:09:09.202Z,2.88
2024-02-21T13:11:36.182Z,2.60
2024-02-21T13:14:03.256Z,2.72
2024-02-21T13:16:30.330Z,2.65
2024-02-21T13:18:57.225Z,2.70
2024-02-21T13:21:23.979Z,2.67
2024-02-21T13:23:50.781Z,2.90
2024-02-21T13:26:17.628Z,2.80
2024-02-21T13:28:46.088Z,2.78
2024-02-21T13:31:13.066Z,2.90
2024-02-21T13:33:39.950Z,3.22
2024-02-21T13:36:07.014Z,2.80
2024-02-21T13:38:33.802Z,2.78
2024-02-21T13:41:01.817Z,2.42
2024-02-21T13:43:28.965Z,2.75
2024-02-21T13:45:59.947Z,2.85
2024-02-21T13:48:28.070Z,2.67
2024-02-21T13:50:54.982Z,2.67
2024-02-21T13:53:22.400Z,2.45
2024-02-21T13:55:49.420Z,2.65
2024-02-21T13:58:16.859Z,2.65
2024-02-21T14:00:43.690Z,2.80
2024-02-21T14:03:11.002Z,2.70
2024-02-21T14:05:39.941Z,2.33
2024-02-21T14:08:08.374Z,2.55
2024-02-21T14:10:35.156Z,2.72
2024-02-21T14:13:01.968Z,2.58
2024-02-21T14:15:28.869Z,3.15
2024-02-21T14:17:57.212Z,2.70
2024-02-21T14:20:24.030Z,2.20
2024-02-21T14:22:50.750Z,2.38
2024-02-21T14:25:17.482Z,3.08
2024-02-21T14:27:45.043Z,2.75
2024-02-21T14:30:12.492Z,2.65
2024-02-21T14:32:41.434Z,2.78
2024-02-21T14:35:08.593Z,3.45
2024-02-21T14:37:35.354Z,5.15
2024-02-21T14:40:02.209Z,2.70
2024-02-21T14:42:28.992Z,3.10
2024-02-21T14:45:04.687Z,2.70
2024-02-21T14:47:33.276Z,2.53
2024-02-21T14:50:00.530Z,2.20
2024-02-21T14:52:28.733Z,2.30
2024-02-21T14:54:55.677Z,2.60
2024-02-21T14:57:22.811Z,2.70
2024-02-21T14:59:51.003Z,2.45
2024-02-21T15:02:17.941Z,2.90
2024-02-21T15:04:44.850Z,2.60
2024-02-21T15:07:11.617Z,2.88
2024-02-21T15:09:38.313Z,2.20
2024-02-21T15:12:05.302Z,2.00
2024-02-21T15:14:32.158Z,2.15
2024-02-21T15:16:58.917Z,2.22
2024-02-21T15:19:25.691Z,1.98
2024-02-21T15:21:52.397Z,2.00
2024-02-21T15:24:19.050Z,2.08
2024-02-21T15:26:45.729Z,2.50
2024-02-21T15:29:12.513Z,2.13
2024-02-21T15:31:39.239Z,2.40
2024-02-21T15:34:06.003Z,2.15
2024-02-21T15:36:33.022Z,2.05
2024-02-21T15:39:00.506Z,2.47
2024-02-21T15:41:27.460Z,2.33
2024-02-21T15:43:54.674Z,2.80
2024-02-21T15:46:21.554Z,2.08
2024-02-21T15:48:50.417Z,2.00
2024-02-21T15:51:17.279Z,1.88
2024-02-21T15:53:46.196Z,1.90
2024-02-21T15:56:14.934Z,2.30
2024-02-21T15:58:42.654Z,2.00
2024-02-21T16:01:12.581Z,2.00
2024-02-21T16:03:41.880Z,2.00
2024-02-21T16:06:08.894Z,2.05
2024-02-21T16:08:37.749Z,2.10
2024-02-21T16:11:04.931Z,2.00
2024-02-21T16:13:31.962Z,1.92
2024-02-21T16:15:59.241Z,2.08
2024-02-21T16:18:25.920Z,1.70
2024-02-21T16:20:52.823Z,1.15
2024-02-21T16:23:19.662Z,1.67
2024-02-21T16:25:49.237Z,1.55
2024-02-21T16:28:17.410Z,1.75
2024-02-21T16:30:44.056Z,1.50
2024-02-21T16:33:10.747Z,1.35
2024-02-21T16:35:38.421Z,1.45
2024-02-21T16:38:05.480Z,1.65
2024-02-21T16:40:32.368Z,2.08
2024-02-21T16:43:01.162Z,1.70
2024-02-21T16:45:27.799Z,1.55
2024-02-21T16:47:54.514Z,1.55
2024-02-21T16:50:21.315Z,1.65
2024-02-21T16:52:48.429Z,1.50
2024-02-21T16:55:17.050Z,1.88
2024-02-21T16:57:44.283Z,1.90
2024-02-21T17:00:14.652Z,1.80
2024-02-21T17:02:48.531Z,1.70
2024-02-21T17:05:25.642Z,1.38
2024-02-21T17:07:53.295Z,1.80
2024-02-21T17:10:20.088Z,2.10
2024-02-21T17:12:46.746Z,1.85
2024-02-21T17:15:14.852Z,1.75
2024-02-21T17:17:41.654Z,1.65
2024-02-21T17:20:09.702Z,1.50
2024-02-21T17:22:37.684Z,2.00
2024-02-21T17:25:10.759Z,1.80
2024-02-21T17:27:38.103Z,1.73
2024-02-21T17:30:06.916Z,1.80
2024-02-21T17:32:35.464Z,2.05
2024-02-21T17:35:05.751Z,1.60
2024-02-21T17:40:08.087Z,2.10
2024-02-21T17:42:35.812Z,1.90
2024-02-21T17:45:04.336Z,2.00
2024-02-21T17:47:31.943Z,1.75
2024-02-21T17:49:59.126Z,2.05
2024-02-21T17:52:28.191Z,2.10
2024-02-21T17:54:54.910Z,1.98
2024-02-21T17:57:21.702Z,1.90
2024-02-21T17:59:48.344Z,2.00
2024-02-21T18:02:20.798Z,1.83
2024-02-21T18:04:48.943Z,1.88
2024-02-21T18:07:16.091Z,1.98
2024-02-21T18:09:42.878Z,1.90
2024-02-21T18:12:09.735Z,2.08
2024-02-21T18:14:36.925Z,2.25
2024-02-21T18:17:03.617Z,1.75
2024-02-21T18:19:35.066Z,1.95
2024-02-21T18:22:02.917Z,2.00
2024-02-21T18:24:31.336Z,1.98
2024-02-21T18:26:58.056Z,1.88
2024-02-21T18:29:34.916Z,2.33
2024-02-21T18:32:06.625Z,1.75
2024-02-21T18:34:35.401Z,1.92
2024-02-21T18:37:02.500Z,1.63
2024-02-21T18:39:30.770Z,2.00
2024-02-21T18:41:57.861Z,1.85
2024-02-21T18:44:24.592Z,2.08
2024-02-21T18:46:51.714Z,1.90
2024-02-21T18:49:18.521Z,1.83
2024-02-21T18:51:45.676Z,2.13
2024-02-21T18:54:12.311Z,1.98
2024-02-21T18:56:39.130Z,1.85
2024-02-21T18:59:05.877Z,1.73
2024-02-21T19:01:32.841Z,2.35
2024-02-21T19:03:59.686Z,2.10
2024-02-21T19:06:26.448Z,2.15
2024-02-21T19:08:53.237Z,2.20
2024-02-21T19:11:19.914Z,2.47
2024-02-21T19:13:46.618Z,2.45
2024-02-21T19:16:15.330Z,2.13
2024-02-21T19:18:43.626Z,2.20
2024-02-21T19:21:10.469Z,2.10
2024-02-21T19:23:37.546Z,2.78
2024-02-21T19:26:10.738Z,2.70
2024-02-21T19:28:37.684Z,2.60
2024-02-21T19:31:05.768Z,2.53
2024-02-21T19:33:32.851Z,2.35
2024-02-21T19:36:00.835Z,2.50
2024-02-21T19:38:28.338Z,2.92
2024-02-21T19:40:55.386Z,2.55
2024-02-21T19:43:23.771Z,2.63
2024-02-21T19:45:50.658Z,2.40
2024-02-21T19:48:19.643Z,2.75
2024-02-21T19:50:46.934Z,2.60
2024-02-21T19:53:14.135Z,2.72
2024-02-21T19:55:41.154Z,2.55
2024-02-21T19:58:07.948Z,2.88
2024-02-21T20:00:34.825Z,2.88
2024-02-21T20:03:01.626Z,2.85
2024-02-21T20:05:28.412Z,3.03
2024-02-21T20:07:55.405Z,2.97
2024-02-21T20:10:22.691Z,3.20
2024-02-21T20:12:49.858Z,3.25
2024-02-21T20:15:16.993Z,3.20
2024-02-21T20:17:48.099Z,3.08
2024-02-21T20:20:15.499Z,3.70
2024-02-21T20:22:45.570Z,3.42
2024-02-21T20:25:12.605Z,3.72
2024-02-21T20:27:39.466Z,3.40
2024-02-21T20:30:07.112Z,3.67
2024-02-21T20:32:34.089Z,3.45
2024-02-21T20:35:01.196Z,4.00
2024-02-21T20:37:28.145Z,3.72
2024-02-21T20:39:54.846Z,4.45
2024-02-21T20:42:24.973Z,4.32
2024-02-21T20:44:52.210Z,4.57
2024-02-21T20:47:20.891Z,4.15
2024-02-21T20:49:47.925Z,4.32
2024-02-21T20:52:15.082Z,4.30
2024-02-21T20:54:41.852Z,4.05
2024-02-21T20:57:08.692Z,4.53
2024-02-21T20:59:35.325Z,4.53
2024-02-21T21:02:03.826Z,4.45
2024-02-21T21:04:31.393Z,4.85
2024-02-21T21:06:58.356Z,4.40
2024-02-21T21:09:26.828Z,4.47
2024-02-21T21:11:53.926Z,4.68
2024-02-21T21:14:20.934Z,4.93
2024-02-21T21:16:47.756Z,4.63
2024-02-21T21:19:14.776Z,4.50
2024-02-21T21:21:43.784Z,5.03
2024-02-21T21:26:38.612Z,4.40
2024-02-21T21:29:06.467Z,4.70
2024-02-21T21:31:33.485Z,4.15
2024-02-21T21:34:00.689Z,5.03
2024-02-21T21:36:27.400Z,5.10
2024-02-21T21:38:54.855Z,4.90
2024-02-21T21:41:22.240Z,4.78
2024-02-21T21:43:49.042Z,4.80
2024-02-21T21:46:16.359Z,4.90
2024-02-21T21:48:43.961Z,5.10
2024-02-21T21:51:11.043Z,4.88
2024-02-21T21:53:37.782Z,4.53
2024-02-21T21:56:07.904Z,4.75
2024-02-21T22:01:01.375Z,4.35
2024-02-21T22:03:29.378Z,4.90
2024-02-21T22:05:56.446Z,4.55
2024-02-21T22:08:23.222Z,4.93
2024-02-21T22:10:51.894Z,4.63
2024-02-21T22:13:18.742Z,4.60
2024-02-21T22:15:46.652Z,4.40
2024-02-21T22:18:13.544Z,4.70
2024-02-21T22:20:40.608Z,4.55
2024-02-21T22:23:08.159Z,4.57
2024-02-21T22:25:35.104Z,4.60
2024-02-21T22:28:01.768Z,4.38
2024-02-21T22:30:28.577Z,4.15
2024-02-21T22:32:55.249Z,4.43
2024-02-21T22:35:22.556Z,4.32
2024-02-21T22:37:49.269Z,4.40
2024-02-21T22:40:17.102Z,4.30
2024-02-21T22:42:44.086Z,4.30
2024-02-21T22:45:10.996Z,4.35
2024-02-21T22:47:37.726Z,3.47
2024-02-21T22:50:05.517Z,4.35
2024-02-21T22:52:32.327Z,4.32
2024-02-21T22:54:59.142Z,4.13
2024-02-21T22:57:25.833Z,3.97
2024-02-21T22:59:52.715Z,3.95
2024-02-21T23:02:19.396Z,4.35
2024-02-21T23:04:46.359Z,4.25
2024-02-21T23:07:13.181Z,3.70
2024-02-21T23:09:39.841Z,4.13
2024-02-21T23:12:06.916Z,4.45
2024-02-21T23:14:33.957Z,3.95
2024-02-21T23:17:00.850Z,3.88
2024-02-21T23:19:27.724Z,4.03
2024-02-21T23:21:54.796Z,3.50
2024-02-21T23:24:21.410Z,4.00
2024-02-21T23:26:48.735Z,4.10
2024-02-21T23:29:15.494Z,3.85
2024-02-21T23:31:42.838Z,4.13
2024-02-21T23:34:10.280Z,3.92
2024-02-21T23:36:37.043Z,4.00
2024-02-21T23:39:04.074Z,4.13
2024-02-21T23:41:30.850Z,3.70
2024-02-21T23:44:00.287Z,4.13
2024-02-21T23:46:27.556Z,3.83
2024-02-21T23:48:58.627Z,4.00
2024-02-21T23:51:25.437Z,4.05
2024-02-21T23:53:52.070Z,3.75
2024-02-21T23:56:18.764Z,3.40
2024-02-21T23:58:45.440Z,3.92
